sensor_id;sensor_type;location;lat;lon;timestamp;P1;durP1;ratioP1;P2;durP2;ratioP2
25381;SDS011;16307;42.896;20.874;2024-02-28T00:02:45;25.60;;;10.38;;
25381;SDS011;16307;42.896;20.874;2024-02-28T00:05:31;23.90;;;10.73;;
25381;SDS011;16307;42.896;20.874;2024-02-28T00:08:17;23.45;;;9.85;;
25381;SDS011;16307;42.896;20.874;2024-02-28T00:11:05;27.00;;;10.43;;
25381;SDS011;16307;42.896;20.874;2024-02-28T00:13:51;25.50;;;10.10;;
25381;SDS011;16307;42.896;20.874;2024-02-28T00:16:42;19.05;;;8.73;;
25381;SDS011;16307;42.896;20.874;2024-02-28T00:19:28;22.33;;;9.50;;
25381;SDS011;16307;42.896;20.874;2024-02-28T00:22:14;21.55;;;8.98;;
25381;SDS011;16307;42.896;20.874;2024-02-28T00:25:00;28.23;;;11.73;;
25381;SDS011;16307;42.896;20.874;2024-02-28T00:27:47;33.72;;;12.85;;
25381;SDS011;16307;42.896;20.874;2024-02-28T00:30:33;33.17;;;13.20;;
25381;SDS011;16307;42.896;20.874;2024-02-28T00:33:19;31.08;;;14.48;;
25381;SDS011;16307;42.896;20.874;2024-02-28T00:36:06;25.13;;;11.23;;
25381;SDS011;16307;42.896;20.874;2024-02-28T00:38:52;34.85;;;14.93;;
25381;SDS011;16307;42.896;20.874;2024-02-28T00:41:38;35.22;;;15.52;;
25381;SDS011;16307;42.896;20.874;2024-02-28T00:44:24;34.38;;;12.65;;
25381;SDS011;16307;42.896;20.874;2024-02-28T00:47:10;26.63;;;12.95;;
25381;SDS011;16307;42.896;20.874;2024-02-28T00:49:56;32.03;;;15.38;;
25381;SDS011;16307;42.896;20.874;2024-02-28T00:52:42;36.08;;;15.85;;
25381;SDS011;16307;42.896;20.874;2024-02-28T00:55:28;36.47;;;15.93;;
25381;SDS011;16307;42.896;20.874;2024-02-28T00:58:14;36.35;;;15.23;;
25381;SDS011;16307;42.896;20.874;2024-02-28T01:01:00;35.35;;;15.25;;
25381;SDS011;16307;42.896;20.874;2024-02-28T01:03:46;38.20;;;16.30;;
25381;SDS011;16307;42.896;20.874;2024-02-28T01:06:32;34.92;;;16.05;;
25381;SDS011;16307;42.896;20.874;2024-02-28T01:09:18;30.42;;;13.75;;
25381;SDS011;16307;42.896;20.874;2024-02-28T01:12:05;29.42;;;12.75;;
25381;SDS011;16307;42.896;20.874;2024-02-28T01:14:51;32.78;;;13.80;;
25381;SDS011;16307;42.896;20.874;2024-02-28T01:17:37;34.05;;;14.70;;
25381;SDS011;16307;42.896;20.874;2024-02-28T01:20:23;36.17;;;16.60;;
25381;SDS011;16307;42.896;20.874;2024-02-28T01:23:09;43.97;;;16.08;;
25381;SDS011;16307;42.896;20.874;2024-02-28T01:25:56;38.95;;;17.08;;
25381;SDS011;16307;42.896;20.874;2024-02-28T01:28:42;41.50;;;17.65;;
25381;SDS011;16307;42.896;20.874;2024-02-28T01:31:29;43.83;;;19.30;;
25381;SDS011;16307;42.896;20.874;2024-02-28T01:34:15;46.22;;;19.40;;
25381;SDS011;16307;42.896;20.874;2024-02-28T01:37:01;34.92;;;17.88;;
25381;SDS011;16307;42.896;20.874;2024-02-28T01:39:47;39.83;;;18.33;;
25381;SDS011;16307;42.896;20.874;2024-02-28T01:42:33;41.83;;;18.55;;
25381;SDS011;16307;42.896;20.874;2024-02-28T01:45:19;36.30;;;16.85;;
25381;SDS011;16307;42.896;20.874;2024-02-28T01:48:06;38.45;;;16.77;;
25381;SDS011;16307;42.896;20.874;2024-02-28T01:50:53;32.17;;;15.85;;
25381;SDS011;16307;42.896;20.874;2024-02-28T01:53:39;39.58;;;18.08;;
25381;SDS011;16307;42.896;20.874;2024-02-28T01:56:25;36.83;;;16.25;;
25381;SDS011;16307;42.896;20.874;2024-02-28T01:59:12;36.75;;;16.48;;
25381;SDS011;16307;42.896;20.874;2024-02-28T02:01:59;32.20;;;14.90;;
25381;SDS011;16307;42.896;20.874;2024-02-28T02:04:45;38.47;;;15.65;;
25381;SDS011;16307;42.896;20.874;2024-02-28T02:07:32;34.75;;;14.05;;
25381;SDS011;16307;42.896;20.874;2024-02-28T02:10:17;24.70;;;12.27;;
25381;SDS011;16307;42.896;20.874;2024-02-28T02:13:04;32.42;;;14.18;;
25381;SDS011;16307;42.896;20.874;2024-02-28T02:15:53;32.33;;;13.70;;
25381;SDS011;16307;42.896;20.874;2024-02-28T02:18:39;34.25;;;13.35;;
25381;SDS011;16307;42.896;20.874;2024-02-28T02:21:27;36.78;;;12.88;;
25381;SDS011;16307;42.896;20.874;2024-02-28T02:24:16;38.63;;;14.88;;
25381;SDS011;16307;42.896;20.874;2024-02-28T02:27:02;33.38;;;13.32;;
25381;SDS011;16307;42.896;20.874;2024-02-28T02:29:51;33.80;;;13.50;;
25381;SDS011;16307;42.896;20.874;2024-02-28T02:32:37;26.60;;;11.00;;
25381;SDS011;16307;42.896;20.874;2024-02-28T02:35:23;27.33;;;11.75;;
25381;SDS011;16307;42.896;20.874;2024-02-28T02:38:09;25.40;;;11.20;;
25381;SDS011;16307;42.896;20.874;2024-02-28T02:40:55;28.67;;;11.95;;
25381;SDS011;16307;42.896;20.874;2024-02-28T02:43:41;29.42;;;13.90;;
25381;SDS011;16307;42.896;20.874;2024-02-28T02:46:27;24.95;;;12.70;;
25381;SDS011;16307;42.896;20.874;2024-02-28T02:49:13;24.65;;;11.93;;
25381;SDS011;16307;42.896;20.874;2024-02-28T02:51:59;23.85;;;11.75;;
25381;SDS011;16307;42.896;20.874;2024-02-28T02:54:45;23.33;;;10.68;;
25381;SDS011;16307;42.896;20.874;2024-02-28T02:57:31;23.50;;;10.52;;
25381;SDS011;16307;42.896;20.874;2024-02-28T03:00:17;22.20;;;10.20;;
25381;SDS011;16307;42.896;20.874;2024-02-28T03:03:03;25.60;;;10.82;;
25381;SDS011;16307;42.896;20.874;2024-02-28T03:05:51;25.92;;;9.68;;
25381;SDS011;16307;42.896;20.874;2024-02-28T03:08:37;20.55;;;9.23;;
25381;SDS011;16307;42.896;20.874;2024-02-28T03:11:23;24.27;;;10.75;;
25381;SDS011;16307;42.896;20.874;2024-02-28T03:14:09;22.95;;;9.82;;
25381;SDS011;16307;42.896;20.874;2024-02-28T03:16:55;19.63;;;10.05;;
25381;SDS011;16307;42.896;20.874;2024-02-28T03:19:42;22.42;;;10.25;;
25381;SDS011;16307;42.896;20.874;2024-02-28T03:22:28;26.45;;;10.10;;
25381;SDS011;16307;42.896;20.874;2024-02-28T03:25:14;24.20;;;12.40;;
25381;SDS011;16307;42.896;20.874;2024-02-28T03:28:00;24.52;;;12.27;;
25381;SDS011;16307;42.896;20.874;2024-02-28T03:30:47;31.80;;;12.23;;
25381;SDS011;16307;42.896;20.874;2024-02-28T03:33:33;24.13;;;11.77;;
25381;SDS011;16307;42.896;20.874;2024-02-28T03:36:21;25.90;;;10.82;;
25381;SDS011;16307;42.896;20.874;2024-02-28T03:39:07;24.50;;;10.95;;
25381;SDS011;16307;42.896;20.874;2024-02-28T03:41:53;24.77;;;9.82;;
25381;SDS011;16307;42.896;20.874;2024-02-28T03:44:39;27.67;;;10.32;;
25381;SDS011;16307;42.896;20.874;2024-02-28T03:47:25;27.92;;;11.05;;
25381;SDS011;16307;42.896;20.874;2024-02-28T03:50:12;23.20;;;10.80;;
25381;SDS011;16307;42.896;20.874;2024-02-28T03:52:58;27.55;;;11.48;;
25381;SDS011;16307;42.896;20.874;2024-02-28T03:55:44;26.35;;;11.98;;
25381;SDS011;16307;42.896;20.874;2024-02-28T03:58:30;28.35;;;11.75;;
25381;SDS011;16307;42.896;20.874;2024-02-28T04:01:16;25.30;;;11.07;;
25381;SDS011;16307;42.896;20.874;2024-02-28T04:04:02;27.80;;;11.90;;
25381;SDS011;16307;42.896;20.874;2024-02-28T04:06:49;25.52;;;12.23;;
25381;SDS011;16307;42.896;20.874;2024-02-28T04:09:35;26.25;;;11.95;;
25381;SDS011;16307;42.896;20.874;2024-02-28T04:12:21;28.27;;;11.55;;
25381;SDS011;16307;42.896;20.874;2024-02-28T04:15:07;25.38;;;11.93;;
25381;SDS011;16307;42.896;20.874;2024-02-28T04:17:58;27.67;;;11.85;;
25381;SDS011;16307;42.896;20.874;2024-02-28T04:20:44;30.05;;;12.95;;
25381;SDS011;16307;42.896;20.874;2024-02-28T04:23:30;27.10;;;12.18;;
25381;SDS011;16307;42.896;20.874;2024-02-28T04:26:16;21.25;;;11.70;;
25381;SDS011;16307;42.896;20.874;2024-02-28T04:29:02;23.25;;;11.68;;
25381;SDS011;16307;42.896;20.874;2024-02-28T04:31:53;24.95;;;11.38;;
25381;SDS011;16307;42.896;20.874;2024-02-28T04:34:39;22.63;;;11.27;;
25381;SDS011;16307;42.896;20.874;2024-02-28T04:37:25;24.88;;;11.48;;
25381;SDS011;16307;42.896;20.874;2024-02-28T04:40:11;25.20;;;10.57;;
25381;SDS011;16307;42.896;20.874;2024-02-28T04:42:57;25.08;;;10.88;;
25381;SDS011;16307;42.896;20.874;2024-02-28T04:45:43;24.23;;;11.63;;
25381;SDS011;16307;42.896;20.874;2024-02-28T04:48:30;23.73;;;11.48;;
25381;SDS011;16307;42.896;20.874;2024-02-28T04:51:17;28.40;;;12.38;;
25381;SDS011;16307;42.896;20.874;2024-02-28T04:54:03;30.50;;;15.93;;
25381;SDS011;16307;42.896;20.874;2024-02-28T04:56:50;49.78;;;19.10;;
25381;SDS011;16307;42.896;20.874;2024-02-28T04:59:37;41.15;;;18.85;;
25381;SDS011;16307;42.896;20.874;2024-02-28T05:02:23;34.58;;;15.05;;
25381;SDS011;16307;42.896;20.874;2024-02-28T05:05:10;29.48;;;14.07;;
25381;SDS011;16307;42.896;20.874;2024-02-28T05:07:55;31.08;;;14.93;;
25381;SDS011;16307;42.896;20.874;2024-02-28T05:10:42;32.25;;;14.88;;
25381;SDS011;16307;42.896;20.874;2024-02-28T05:13:28;25.95;;;12.82;;
25381;SDS011;16307;42.896;20.874;2024-02-28T05:16:14;29.80;;;14.23;;
25381;SDS011;16307;42.896;20.874;2024-02-28T05:19:01;24.83;;;13.13;;
25381;SDS011;16307;42.896;20.874;2024-02-28T05:21:48;29.30;;;13.38;;
25381;SDS011;16307;42.896;20.874;2024-02-28T05:24:35;34.63;;;16.17;;
25381;SDS011;16307;42.896;20.874;2024-02-28T05:27:21;44.95;;;15.77;;
25381;SDS011;16307;42.896;20.874;2024-02-28T05:30:07;30.65;;;14.80;;
25381;SDS011;16307;42.896;20.874;2024-02-28T05:32:53;38.90;;;15.27;;
25381;SDS011;16307;42.896;20.874;2024-02-28T05:35:40;39.88;;;14.60;;
25381;SDS011;16307;42.896;20.874;2024-02-28T05:38:26;33.05;;;15.25;;
25381;SDS011;16307;42.896;20.874;2024-02-28T05:41:12;32.28;;;14.40;;
25381;SDS011;16307;42.896;20.874;2024-02-28T05:44:00;43.67;;;19.80;;
25381;SDS011;16307;42.896;20.874;2024-02-28T05:46:46;33.65;;;17.08;;
25381;SDS011;16307;42.896;20.874;2024-02-28T05:49:34;32.90;;;15.23;;
25381;SDS011;16307;42.896;20.874;2024-02-28T05:52:20;29.23;;;11.20;;
25381;SDS011;16307;42.896;20.874;2024-02-28T05:55:06;24.10;;;11.10;;
25381;SDS011;16307;42.896;20.874;2024-02-28T05:57:52;23.05;;;10.80;;
25381;SDS011;16307;42.896;20.874;2024-02-28T06:00:38;27.13;;;11.90;;
25381;SDS011;16307;42.896;20.874;2024-02-28T06:03:24;26.00;;;12.73;;
25381;SDS011;16307;42.896;20.874;2024-02-28T06:06:10;32.45;;;14.15;;
25381;SDS011;16307;42.896;20.874;2024-02-28T06:08:57;33.85;;;14.15;;
25381;SDS011;16307;42.896;20.874;2024-02-28T06:11:43;39.25;;;17.27;;
25381;SDS011;16307;42.896;20.874;2024-02-28T06:14:30;49.30;;;19.60;;
25381;SDS011;16307;42.896;20.874;2024-02-28T06:17:16;43.63;;;21.08;;
25381;SDS011;16307;42.896;20.874;2024-02-28T06:20:03;38.80;;;19.23;;
25381;SDS011;16307;42.896;20.874;2024-02-28T06:22:49;38.63;;;19.90;;
25381;SDS011;16307;42.896;20.874;2024-02-28T06:25:35;48.97;;;21.15;;
25381;SDS011;16307;42.896;20.874;2024-02-28T06:28:21;46.72;;;21.17;;
25381;SDS011;16307;42.896;20.874;2024-02-28T06:31:13;48.88;;;24.75;;
25381;SDS011;16307;42.896;20.874;2024-02-28T06:34:02;58.78;;;29.77;;
25381;SDS011;16307;42.896;20.874;2024-02-28T06:36:49;56.03;;;25.27;;
25381;SDS011;16307;42.896;20.874;2024-02-28T06:39:35;53.95;;;26.38;;
25381;SDS011;16307;42.896;20.874;2024-02-28T06:42:21;52.38;;;25.42;;
25381;SDS011;16307;42.896;20.874;2024-02-28T06:45:07;52.17;;;25.55;;
25381;SDS011;16307;42.896;20.874;2024-02-28T06:47:54;50.80;;;23.95;;
25381;SDS011;16307;42.896;20.874;2024-02-28T06:50:40;55.50;;;23.45;;
25381;SDS011;16307;42.896;20.874;2024-02-28T06:53:27;55.50;;;24.38;;
25381;SDS011;16307;42.896;20.874;2024-02-28T06:56:13;51.17;;;21.95;;
25381;SDS011;16307;42.896;20.874;2024-02-28T06:58:59;49.15;;;21.63;;
25381;SDS011;16307;42.896;20.874;2024-02-28T07:01:45;44.63;;;22.25;;
25381;SDS011;16307;42.896;20.874;2024-02-28T07:04:31;49.88;;;20.83;;
25381;SDS011;16307;42.896;20.874;2024-02-28T07:07:17;51.65;;;22.98;;
25381;SDS011;16307;42.896;20.874;2024-02-28T07:10:03;45.08;;;20.38;;
25381;SDS011;16307;42.896;20.874;2024-02-28T07:12:50;58.40;;;23.40;;
25381;SDS011;16307;42.896;20.874;2024-02-28T07:15:36;43.97;;;22.27;;
25381;SDS011;16307;42.896;20.874;2024-02-28T07:18:23;53.17;;;24.52;;
25381;SDS011;16307;42.896;20.874;2024-02-28T07:21:15;57.90;;;25.88;;
25381;SDS011;16307;42.896;20.874;2024-02-28T07:24:01;54.33;;;26.00;;
25381;SDS011;16307;42.896;20.874;2024-02-28T07:26:48;74.20;;;27.45;;
25381;SDS011;16307;42.896;20.874;2024-02-28T07:29:36;58.63;;;28.88;;
25381;SDS011;16307;42.896;20.874;2024-02-28T07:32:23;73.13;;;30.90;;
25381;SDS011;16307;42.896;20.874;2024-02-28T07:35:09;63.83;;;28.02;;
25381;SDS011;16307;42.896;20.874;2024-02-28T07:37:57;60.75;;;28.23;;
25381;SDS011;16307;42.896;20.874;2024-02-28T07:40:43;61.80;;;28.38;;
25381;SDS011;16307;42.896;20.874;2024-02-28T07:43:30;59.40;;;26.70;;
25381;SDS011;16307;42.896;20.874;2024-02-28T07:46:22;66.88;;;31.45;;
25381;SDS011;16307;42.896;20.874;2024-02-28T07:49:08;59.75;;;28.38;;
25381;SDS011;16307;42.896;20.874;2024-02-28T07:51:54;44.15;;;20.67;;
25381;SDS011;16307;42.896;20.874;2024-02-28T07:54:41;40.33;;;17.75;;
25381;SDS011;16307;42.896;20.874;2024-02-28T07:57:29;33.08;;;14.25;;
25381;SDS011;16307;42.896;20.874;2024-02-28T08:00:15;20.60;;;12.80;;
25381;SDS011;16307;42.896;20.874;2024-02-28T08:03:04;36.97;;;14.30;;
25381;SDS011;16307;42.896;20.874;2024-02-28T08:05:50;25.75;;;12.77;;
25381;SDS011;16307;42.896;20.874;2024-02-28T08:08:36;34.00;;;13.60;;
25381;SDS011;16307;42.896;20.874;2024-02-28T08:11:22;34.75;;;15.55;;
25381;SDS011;16307;42.896;20.874;2024-02-28T08:14:09;36.92;;;15.35;;
25381;SDS011;16307;42.896;20.874;2024-02-28T08:16:55;32.60;;;15.13;;
25381;SDS011;16307;42.896;20.874;2024-02-28T08:19:41;35.88;;;15.20;;
25381;SDS011;16307;42.896;20.874;2024-02-28T08:22:27;33.88;;;15.60;;
25381;SDS011;16307;42.896;20.874;2024-02-28T08:25:13;32.45;;;14.63;;
25381;SDS011;16307;42.896;20.874;2024-02-28T08:28:00;39.80;;;14.80;;
25381;SDS011;16307;42.896;20.874;2024-02-28T08:30:45;35.05;;;14.27;;
25381;SDS011;16307;42.896;20.874;2024-02-28T08:33:32;38.97;;;15.13;;
25381;SDS011;16307;42.896;20.874;2024-02-28T08:36:18;43.65;;;16.23;;
25381;SDS011;16307;42.896;20.874;2024-02-28T08:39:04;59.17;;;14.88;;
25381;SDS011;16307;42.896;20.874;2024-02-28T08:41:51;56.60;;;14.43;;
25381;SDS011;16307;42.896;20.874;2024-02-28T08:44:37;48.55;;;13.10;;
25381;SDS011;16307;42.896;20.874;2024-02-28T08:47:23;36.90;;;11.88;;
25381;SDS011;16307;42.896;20.874;2024-02-28T08:50:10;33.00;;;10.73;;
25381;SDS011;16307;42.896;20.874;2024-02-28T08:52:56;54.22;;;13.55;;
25381;SDS011;16307;42.896;20.874;2024-02-28T08:55:43;42.75;;;11.55;;
25381;SDS011;16307;42.896;20.874;2024-02-28T08:58:29;36.80;;;10.95;;
25381;SDS011;16307;42.896;20.874;2024-02-28T09:01:16;40.63;;;10.75;;
25381;SDS011;16307;42.896;20.874;2024-02-28T09:04:02;40.95;;;11.82;;
25381;SDS011;16307;42.896;20.874;2024-02-28T09:06:49;36.33;;;10.52;;
25381;SDS011;16307;42.896;20.874;2024-02-28T09:09:35;45.22;;;11.98;;
25381;SDS011;16307;42.896;20.874;2024-02-28T09:12:23;58.42;;;13.00;;
25381;SDS011;16307;42.896;20.874;2024-02-28T09:15:09;57.75;;;13.07;;
25381;SDS011;16307;42.896;20.874;2024-02-28T09:17:55;60.63;;;12.65;;
25381;SDS011;16307;42.896;20.874;2024-02-28T09:20:41;51.08;;;14.13;;
25381;SDS011;16307;42.896;20.874;2024-02-28T09:23:28;38.63;;;11.75;;
25381;SDS011;16307;42.896;20.874;2024-02-28T09:26:13;40.03;;;12.25;;
25381;SDS011;16307;42.896;20.874;2024-02-28T09:29:00;29.60;;;11.18;;
25381;SDS011;16307;42.896;20.874;2024-02-28T09:31:46;23.52;;;9.55;;
25381;SDS011;16307;42.896;20.874;2024-02-28T09:34:32;29.83;;;10.07;;
25381;SDS011;16307;42.896;20.874;2024-02-28T09:37:18;29.38;;;10.75;;
25381;SDS011;16307;42.896;20.874;2024-02-28T09:40:08;17.55;;;8.93;;
25381;SDS011;16307;42.896;20.874;2024-02-28T09:43:02;24.98;;;10.85;;
25381;SDS011;16307;42.896;20.874;2024-02-28T09:45:49;21.70;;;10.05;;
25381;SDS011;16307;42.896;20.874;2024-02-28T09:48:36;26.02;;;9.90;;
25381;SDS011;16307;42.896;20.874;2024-02-28T09:51:24;23.50;;;11.02;;
25381;SDS011;16307;42.896;20.874;2024-02-28T09:54:10;29.45;;;10.73;;
25381;SDS011;16307;42.896;20.874;2024-02-28T09:56:56;24.00;;;8.82;;
25381;SDS011;16307;42.896;20.874;2024-02-28T09:59:43;25.00;;;10.18;;
25381;SDS011;16307;42.896;20.874;2024-02-28T10:02:40;26.70;;;9.23;;
25381;SDS011;16307;42.896;20.874;2024-02-28T10:05:28;24.08;;;9.93;;
25381;SDS011;16307;42.896;20.874;2024-02-28T10:08:15;23.55;;;9.98;;
25381;SDS011;16307;42.896;20.874;2024-02-28T10:11:01;27.30;;;9.65;;
25381;SDS011;16307;42.896;20.874;2024-02-28T10:13:47;20.42;;;8.75;;
25381;SDS011;16307;42.896;20.874;2024-02-28T10:16:33;20.77;;;9.18;;
25381;SDS011;16307;42.896;20.874;2024-02-28T10:19:19;18.58;;;9.52;;
25381;SDS011;16307;42.896;20.874;2024-02-28T10:22:06;19.15;;;8.75;;
25381;SDS011;16307;42.896;20.874;2024-02-28T10:24:58;31.75;;;10.38;;
25381;SDS011;16307;42.896;20.874;2024-02-28T10:27:46;33.08;;;10.48;;
25381;SDS011;16307;42.896;20.874;2024-02-28T10:30:33;39.30;;;11.20;;
25381;SDS011;16307;42.896;20.874;2024-02-28T10:33:26;29.88;;;9.48;;
25381;SDS011;16307;42.896;20.874;2024-02-28T10:36:14;41.88;;;10.75;;
25381;SDS011;16307;42.896;20.874;2024-02-28T10:39:01;29.98;;;9.50;;
25381;SDS011;16307;42.896;20.874;2024-02-28T10:41:48;29.23;;;9.38;;
25381;SDS011;16307;42.896;20.874;2024-02-28T10:44:37;28.40;;;8.80;;
25381;SDS011;16307;42.896;20.874;2024-02-28T10:47:23;30.27;;;9.45;;
25381;SDS011;16307;42.896;20.874;2024-02-28T10:50:10;29.45;;;9.85;;
25381;SDS011;16307;42.896;20.874;2024-02-28T10:52:57;38.17;;;11.07;;
25381;SDS011;16307;42.896;20.874;2024-02-28T10:55:48;47.83;;;10.43;;
25381;SDS011;16307;42.896;20.874;2024-02-28T10:58:35;35.58;;;12.15;;
25381;SDS011;16307;42.896;20.874;2024-02-28T11:01:25;33.80;;;9.95;;
25381;SDS011;16307;42.896;20.874;2024-02-28T11:04:12;27.33;;;8.38;;
25381;SDS011;16307;42.896;20.874;2024-02-28T11:06:58;33.90;;;9.38;;
25381;SDS011;16307;42.896;20.874;2024-02-28T11:09:46;33.30;;;10.82;;
25381;SDS011;16307;42.896;20.874;2024-02-28T11:12:32;29.73;;;8.73;;
25381;SDS011;16307;42.896;20.874;2024-02-28T11:15:18;31.45;;;7.72;;
25381;SDS011;16307;42.896;20.874;2024-02-28T11:18:08;31.30;;;7.78;;
25381;SDS011;16307;42.896;20.874;2024-02-28T11:20:55;26.42;;;7.22;;
25381;SDS011;16307;42.896;20.874;2024-02-28T11:23:41;25.92;;;7.63;;
25381;SDS011;16307;42.896;20.874;2024-02-28T11:26:32;22.52;;;7.00;;
25381;SDS011;16307;42.896;20.874;2024-02-28T11:29:22;31.30;;;7.18;;
25381;SDS011;16307;42.896;20.874;2024-02-28T11:32:09;34.92;;;7.80;;
25381;SDS011;16307;42.896;20.874;2024-02-28T11:34:56;34.95;;;8.00;;
25381;SDS011;16307;42.896;20.874;2024-02-28T11:37:44;25.02;;;6.97;;
25381;SDS011;16307;42.896;20.874;2024-02-28T11:40:32;20.55;;;7.00;;
25381;SDS011;16307;42.896;20.874;2024-02-28T11:43:18;25.92;;;7.57;;
25381;SDS011;16307;42.896;20.874;2024-02-28T11:46:08;32.38;;;7.32;;
25381;SDS011;16307;42.896;20.874;2024-02-28T11:48:56;25.63;;;8.52;;
25381;SDS011;16307;42.896;20.874;2024-02-28T11:51:43;21.65;;;6.57;;
25381;SDS011;16307;42.896;20.874;2024-02-28T11:54:30;30.73;;;8.35;;
25381;SDS011;16307;42.896;20.874;2024-02-28T11:57:16;26.70;;;6.85;;
25381;SDS011;16307;42.896;20.874;2024-02-28T12:00:06;26.02;;;7.80;;
25381;SDS011;16307;42.896;20.874;2024-02-28T12:03:04;24.52;;;7.82;;
25381;SDS011;16307;42.896;20.874;2024-02-28T12:05:52;23.48;;;7.15;;
25381;SDS011;16307;42.896;20.874;2024-02-28T12:08:38;33.92;;;9.07;;
25381;SDS011;16307;42.896;20.874;2024-02-28T12:11:24;25.67;;;7.18;;
25381;SDS011;16307;42.896;20.874;2024-02-28T12:14:10;30.10;;;8.02;;
25381;SDS011;16307;42.896;20.874;2024-02-28T12:16:58;31.17;;;6.82;;
25381;SDS011;16307;42.896;20.874;2024-02-28T12:19:44;25.33;;;7.68;;
25381;SDS011;16307;42.896;20.874;2024-02-28T12:22:30;29.95;;;6.97;;
25381;SDS011;16307;42.896;20.874;2024-02-28T12:25:16;19.77;;;6.55;;
25381;SDS011;16307;42.896;20.874;2024-02-28T12:28:04;28.20;;;6.80;;
25381;SDS011;16307;42.896;20.874;2024-02-28T12:30:52;28.55;;;6.93;;
25381;SDS011;16307;42.896;20.874;2024-02-28T12:33:39;35.72;;;7.55;;
25381;SDS011;16307;42.896;20.874;2024-02-28T12:36:26;30.75;;;6.75;;
25381;SDS011;16307;42.896;20.874;2024-02-28T12:39:12;22.90;;;6.47;;
25381;SDS011;16307;42.896;20.874;2024-02-28T12:41:58;21.33;;;6.43;;
25381;SDS011;16307;42.896;20.874;2024-02-28T12:44:44;18.20;;;6.10;;
25381;SDS011;16307;42.896;20.874;2024-02-28T12:47:31;21.38;;;6.13;;
25381;SDS011;16307;42.896;20.874;2024-02-28T12:50:17;24.60;;;7.05;;
25381;SDS011;16307;42.896;20.874;2024-02-28T12:53:03;23.65;;;6.28;;
25381;SDS011;16307;42.896;20.874;2024-02-28T12:55:51;17.98;;;5.78;;
25381;SDS011;16307;42.896;20.874;2024-02-28T12:58:37;25.30;;;5.53;;
25381;SDS011;16307;42.896;20.874;2024-02-28T13:01:24;12.57;;;6.25;;
25381;SDS011;16307;42.896;20.874;2024-02-28T13:04:10;9.55;;;4.07;;
25381;SDS011;16307;42.896;20.874;2024-02-28T13:06:56;12.68;;;5.20;;
25381;SDS011;16307;42.896;20.874;2024-02-28T13:09:42;12.32;;;5.38;;
25381;SDS011;16307;42.896;20.874;2024-02-28T13:12:28;12.75;;;5.25;;
25381;SDS011;16307;42.896;20.874;2024-02-28T13:15:15;11.13;;;5.30;;
25381;SDS011;16307;42.896;20.874;2024-02-28T13:18:02;18.13;;;5.28;;
25381;SDS011;16307;42.896;20.874;2024-02-28T13:20:52;11.88;;;4.60;;
25381;SDS011;16307;42.896;20.874;2024-02-28T13:23:38;13.45;;;4.78;;
25381;SDS011;16307;42.896;20.874;2024-02-28T13:26:24;17.45;;;5.50;;
25381;SDS011;16307;42.896;20.874;2024-02-28T13:29:10;19.67;;;6.43;;
25381;SDS011;16307;42.896;20.874;2024-02-28T13:31:56;15.52;;;5.53;;
25381;SDS011;16307;42.896;20.874;2024-02-28T13:34:43;14.27;;;4.50;;
25381;SDS011;16307;42.896;20.874;2024-02-28T13:37:34;13.88;;;5.88;;
25381;SDS011;16307;42.896;20.874;2024-02-28T13:40:20;20.45;;;4.93;;
25381;SDS011;16307;42.896;20.874;2024-02-28T13:43:06;16.02;;;5.50;;
25381;SDS011;16307;42.896;20.874;2024-02-28T13:45:52;21.70;;;6.13;;
25381;SDS011;16307;42.896;20.874;2024-02-28T13:48:40;15.35;;;6.13;;
25381;SDS011;16307;42.896;20.874;2024-02-28T13:51:26;14.50;;;5.80;;
25381;SDS011;16307;42.896;20.874;2024-02-28T13:54:29;22.17;;;6.88;;
25381;SDS011;16307;42.896;20.874;2024-02-28T13:57:15;22.98;;;7.38;;
25381;SDS011;16307;42.896;20.874;2024-02-28T14:00:01;27.63;;;7.75;;
25381;SDS011;16307;42.896;20.874;2024-02-28T14:02:55;26.27;;;7.88;;
25381;SDS011;16307;42.896;20.874;2024-02-28T14:05:42;23.70;;;7.60;;
25381;SDS011;16307;42.896;20.874;2024-02-28T14:08:28;21.05;;;6.57;;
25381;SDS011;16307;42.896;20.874;2024-02-28T14:11:20;24.80;;;7.47;;
25381;SDS011;16307;42.896;20.874;2024-02-28T14:14:08;25.25;;;8.30;;
25381;SDS011;16307;42.896;20.874;2024-02-28T14:16:54;29.83;;;8.27;;
25381;SDS011;16307;42.896;20.874;2024-02-28T14:19:40;19.77;;;6.22;;
25381;SDS011;16307;42.896;20.874;2024-02-28T14:22:26;16.80;;;5.60;;
25381;SDS011;16307;42.896;20.874;2024-02-28T14:25:13;18.60;;;5.25;;
25381;SDS011;16307;42.896;20.874;2024-02-28T14:28:02;20.15;;;5.93;;
25381;SDS011;16307;42.896;20.874;2024-02-28T14:30:49;17.77;;;5.70;;
25381;SDS011;16307;42.896;20.874;2024-02-28T14:33:35;13.65;;;5.03;;
25381;SDS011;16307;42.896;20.874;2024-02-28T14:36:22;10.55;;;4.40;;
25381;SDS011;16307;42.896;20.874;2024-02-28T14:39:10;12.75;;;4.93;;
25381;SDS011;16307;42.896;20.874;2024-02-28T14:42:01;17.20;;;5.40;;
25381;SDS011;16307;42.896;20.874;2024-02-28T14:44:48;15.00;;;5.30;;
25381;SDS011;16307;42.896;20.874;2024-02-28T14:47:34;18.10;;;5.85;;
25381;SDS011;16307;42.896;20.874;2024-02-28T14:50:21;16.02;;;5.50;;
25381;SDS011;16307;42.896;20.874;2024-02-28T14:53:08;22.05;;;5.60;;
25381;SDS011;16307;42.896;20.874;2024-02-28T14:55:54;16.95;;;5.60;;
25381;SDS011;16307;42.896;20.874;2024-02-28T14:58:40;17.10;;;5.05;;
25381;SDS011;16307;42.896;20.874;2024-02-28T15:01:26;23.10;;;5.80;;
25381;SDS011;16307;42.896;20.874;2024-02-28T15:04:13;22.15;;;6.32;;
25381;SDS011;16307;42.896;20.874;2024-02-28T15:07:01;12.70;;;5.38;;
25381;SDS011;16307;42.896;20.874;2024-02-28T15:09:48;14.57;;;5.38;;
25381;SDS011;16307;42.896;20.874;2024-02-28T15:12:34;23.25;;;6.07;;
25381;SDS011;16307;42.896;20.874;2024-02-28T15:15:21;18.13;;;6.10;;
25381;SDS011;16307;42.896;20.874;2024-02-28T15:18:08;18.35;;;5.18;;
25381;SDS011;16307;42.896;20.874;2024-02-28T15:20:54;13.27;;;5.82;;
25381;SDS011;16307;42.896;20.874;2024-02-28T15:23:46;13.25;;;5.75;;
25381;SDS011;16307;42.896;20.874;2024-02-28T15:26:32;15.23;;;6.43;;
25381;SDS011;16307;42.896;20.874;2024-02-28T15:29:31;17.35;;;7.28;;
25381;SDS011;16307;42.896;20.874;2024-02-28T15:32:18;19.65;;;7.18;;
25381;SDS011;16307;42.896;20.874;2024-02-28T15:35:04;26.50;;;7.10;;
25381;SDS011;16307;42.896;20.874;2024-02-28T15:37:51;25.73;;;6.82;;
25381;SDS011;16307;42.896;20.874;2024-02-28T15:40:37;19.38;;;6.90;;
25381;SDS011;16307;42.896;20.874;2024-02-28T15:43:23;25.23;;;7.22;;
25381;SDS011;16307;42.896;20.874;2024-02-28T15:46:09;32.45;;;7.82;;
25381;SDS011;16307;42.896;20.874;2024-02-28T15:48:56;29.95;;;7.72;;
25381;SDS011;16307;42.896;20.874;2024-02-28T15:51:42;26.55;;;7.18;;
25381;SDS011;16307;42.896;20.874;2024-02-28T15:54:27;22.17;;;6.95;;
25381;SDS011;16307;42.896;20.874;2024-02-28T15:57:14;20.73;;;6.72;;
25381;SDS011;16307;42.896;20.874;2024-02-28T16:00:00;15.65;;;5.55;;
25381;SDS011;16307;42.896;20.874;2024-02-28T16:02:56;16.80;;;5.47;;
25381;SDS011;16307;42.896;20.874;2024-02-28T16:05:42;15.55;;;5.20;;
25381;SDS011;16307;42.896;20.874;2024-02-28T16:08:28;14.18;;;5.35;;